Time;durP1;ratioP1;P1;durP2;ratioP2;P2;SDS_P1;SDS_P2;PMS_P1;PMS_P2;Temp;Humidity;BMP_temperature;BMP_pressure;BME280_temperature;BME280_humidity;BME280_pressure;Samples;Min_cycle;Max_cycle;Signal;HPM_P1;HPM_P2
2021/12/26 00:00:36;;;;;;;4.50;4.10;;;4.60;93.80;;;;;;957299;146;27343;-85
2021/12/26 00:03:05;;;;;;;4.80;4.37;;;4.60;93.50;;;;;;958371;149;27349;-84
2021/12/26 00:05:31;;;;;;;4.83;4.33;;;4.60;93.50;;;;;;959145;146;27335;-84
2021/12/26 00:07:58;;;;;;;5.20;4.70;;;4.60;93.40;;;;;;955570;149;27435;-85
2021/12/26 00:10:24;;;;;;;4.50;4.10;;;4.60;93.50;;;;;;961840;148;27303;-85
2021/12/26 00:12:51;;;;;;;5.00;4.50;;;4.60;93.80;;;;;;961900;146;27344;-84
2021/12/26 00:15:18;;;;;;;4.67;4.27;;;4.60;93.40;;;;;;959272;146;27409;-85
2021/12/26 00:17:44;;;;;;;4.83;4.30;;;4.50;93.40;;;;;;957186;149;27310;-84
2021/12/26 00:20:11;;;;;;;4.77;4.37;;;4.60;93.40;;;;;;959318;146;27920;-84
2021/12/26 00:22:37;;;;;;;4.40;4.00;;;4.50;93.40;;;;;;957950;148;27359;-85
2021/12/26 00:25:04;;;;;;;4.93;4.43;;;4.50;93.40;;;;;;962954;146;27447;-86
2021/12/26 00:27:31;;;;;;;4.27;3.87;;;4.50;93.40;;;;;;957893;149;27337;-84
2021/12/26 00:29:57;;;;;;;4.80;4.40;;;4.50;93.30;;;;;;959796;149;27290;-85
2021/12/26 00:32:24;;;;;;;5.13;4.67;;;4.50;93.30;;;;;;960172;149;27391;-85
2021/12/26 00:34:51;;;;;;;4.57;4.17;;;4.50;93.40;;;;;;960415;146;27335;-85
2021/12/26 00:37:17;;;;;;;4.97;4.57;;;4.50;93.40;;;;;;963839;146;27925;-85
2021/12/26 00:39:43;;;;;;;4.60;4.20;;;4.50;93.40;;;;;;959641;146;27395;-85
2021/12/26 00:42:10;;;;;;;5.40;4.80;;;4.50;93.40;;;;;;958038;147;27397;-85
2021/12/26 00:44:39;;;;;;;4.83;4.43;;;4.50;93.40;;;;;;956060;146;27815;-85
2021/12/26 00:47:03;;;;;;;5.43;4.93;;;4.50;93.30;;;;;;960800;146;27299;-85
2021/12/26 00:49:30;;;;;;;4.77;4.37;;;4.50;93.30;;;;;;961421;146;27300;-85
2021/12/26 00:51:59;;;;;;;4.53;4.13;;;4.50;93.30;;;;;;960909;146;27408;-85
2021/12/26 00:54:26;;;;;;;4.40;4.00;;;4.60;93.20;;;;;;958125;146;27281;-84
2021/12/26 00:56:52;;;;;;;4.97;4.43;;;4.50;93.20;;;;;;962497;147;27275;-85
2021/12/26 00:59:19;;;;;;;4.70;4.30;;;4.50;93.20;;;;;;955147;146;27408;-85
2021/12/26 01:01:45;;;;;;;4.90;4.50;;;4.50;93.20;;;;;;964416;146;27762;-84
2021/12/26 01:04:15;;;;;;;4.80;4.40;;;4.50;93.30;;;;;;953350;146;27315;-84
2021/12/26 01:06:41;;;;;;;4.77;4.37;;;4.50;93.30;;;;;;957512;149;27723;-84
2021/12/26 01:09:11;;;;;;;5.70;5.20;;;4.60;93.30;;;;;;959366;146;27344;-84
2021/12/26 01:11:41;;;;;;;5.23;4.77;;;4.60;93.30;;;;;;960831;146;27399;-84
2021/12/26 01:14:04;;;;;;;5.07;4.40;;;4.60;93.20;;;;;;959949;147;27322;-85
2021/12/26 01:16:33;;;;;;;4.80;4.40;;;4.60;93.20;;;;;;956067;146;27285;-84
2021/12/26 01:19:06;;;;;;;5.03;4.53;;;4.60;93.20;;;;;;957381;147;28129;-84
2021/12/26 01:21:26;;;;;;;5.07;4.63;;;4.60;93.20;;;;;;953437;148;27877;-84
2021/12/26 01:23:53;;;;;;;5.57;4.87;;;4.60;93.20;;;;;;960357;146;27303;-83
2021/12/26 01:26:19;;;;;;;5.60;5.10;;;4.60;93.10;;;;;;959507;146;27285;-84
2021/12/26 01:28:46;;;;;;;5.33;4.83;;;4.60;93.20;;;;;;959068;146;27321;-85
2021/12/26 01:31:18;;;;;;;5.30;4.80;;;4.60;93.10;;;;;;959508;146;27342;-84
2021/12/26 01:33:39;;;;;;;6.27;5.27;;;4.60;93.10;;;;;;960045;148;27278;-85
2021/12/26 01:36:06;;;;;;;6.27;5.67;;;4.60;93.10;;;;;;960464;146;27390;-85
2021/12/26 01:38:32;;;;;;;5.10;4.53;;;4.60;92.90;;;;;;961654;146;27282;-84
2021/12/26 01:41:01;;;;;;;5.07;4.60;;;4.60;92.90;;;;;;960250;146;27270;-85
2021/12/26 01:43:26;;;;;;;5.83;5.27;;;4.60;92.80;;;;;;959058;146;27313;-84
2021/12/26 01:45:52;;;;;;;5.13;4.67;;;4.60;92.80;;;;;;955990;146;27283;-85
2021/12/26 01:48:19;;;;;;;5.60;5.07;;;4.60;92.80;;;;;;958874;146;27721;-84
2021/12/26 01:50:45;;;;;;;5.33;4.83;;;4.60;92.90;;;;;;961079;146;27379;-83
2021/12/26 01:53:12;;;;;;;5.57;4.97;;;4.60;92.70;;;;;;958871;147;27698;-85
2021/12/26 01:55:41;;;;;;;5.37;4.87;;;4.50;92.60;;;;;;959314;146;27879;-84
2021/12/26 01:58:05;;;;;;;5.00;4.60;;;4.50;92.60;;;;;;958141;146;27291;-85
2021/12/26 02:00:32;;;;;;;5.00;4.50;;;4.50;92.60;;;;;;958741;146;27337;-85
2021/12/26 02:02:58;;;;;;;5.83;5.30;;;4.50;92.60;;;;;;958638;146;27929;-85
2021/12/26 02:05:25;;;;;;;6.10;4.70;;;4.50;92.20;;;;;;956403;146;27315;-85
2021/12/26 02:07:51;;;;;;;5.37;4.80;;;4.50;92.60;;;;;;961458;146;27412;-85
2021/12/26 02:10:18;;;;;;;5.23;4.73;;;4.50;92.50;;;;;;959247;146;27376;-84
2021/12/26 02:12:44;;;;;;;6.07;5.47;;;4.50;92.50;;;;;;961227;146;27312;-84
2021/12/26 02:15:11;;;;;;;5.27;4.83;;;4.40;92.50;;;;;;957915;147;27243;-85
2021/12/26 02:17:38;;;;;;;5.80;4.93;;;4.40;92.60;;;;;;956321;147;27302;-84
2021/12/26 02:20:14;;;;;;;5.43;4.93;;;4.40;92.60;;;;;;963607;146;27435;-85
2021/12/26 02:22:44;;;;;;;5.27;4.77;;;4.40;92.60;;;;;;960762;146;27385;-84
2021/12/26 02:25:25;;;;;;;5.13;4.63;;;4.40;92.60;;;;;;966154;146;27380;-84
2021/12/26 02:27:42;;;;;;;4.90;4.50;;;4.40;92.50;;;;;;959189;146;27290;-85
2021/12/26 02:30:03;;;;;;;5.90;5.13;;;4.40;92.60;;;;;;963057;146;27275;-84
2021/12/26 02:32:30;;;;;;;5.27;4.77;;;4.40;92.60;;;;;;965892;146;27276;-85
2021/12/26 02:34:56;;;;;;;5.40;4.90;;;4.40;92.50;;;;;;964655;146;27413;-85
2021/12/26 02:37:22;;;;;;;5.17;4.67;;;4.50;92.60;;;;;;962279;149;27287;-85
2021/12/26 02:39:49;;;;;;;5.37;4.87;;;4.50;92.60;;;;;;961404;146;27368;-84
2021/12/26 02:42:15;;;;;;;5.40;4.90;;;4.50;92.50;;;;;;962179;146;27308;-84
2021/12/26 02:44:42;;;;;;;5.13;4.63;;;4.40;92.30;;;;;;961678;146;27345;-85
2021/12/26 02:47:09;;;;;;;6.10;4.60;;;4.40;92.40;;;;;;972503;146;27241;-84
2021/12/26 02:49:35;;;;;;;5.17;4.73;;;4.40;92.40;;;;;;957019;146;27304;-85
2021/12/26 02:52:02;;;;;;;4.80;4.40;;;4.40;92.40;;;;;;958486;146;27320;-85
2021/12/26 02:54:28;;;;;;;5.10;4.70;;;4.50;92.80;;;;;;964722;146;27444;-84
2021/12/26 02:56:55;;;;;;;5.13;4.63;;;4.40;92.40;;;;;;955725;146;27287;-85
2021/12/26 02:59:22;;;;;;;4.87;4.37;;;4.50;92.50;;;;;;958296;146;27312;-85
2021/12/26 03:01:48;;;;;;;4.90;4.20;;;4.50;92.40;;;;;;962786;146;27665;-84
2021/12/26 03:04:15;;;;;;;4.93;4.50;;;4.50;92.40;;;;;;956593;146;27309;-85
2021/12/26 03:07:02;;;;;;;4.63;4.17;;;4.40;92.40;;;;;;963118;146;27276;-85
2021/12/26 03:09:14;;;;;;;5.67;5.17;;;4.50;92.40;;;;;;958067;146;27312;-84
2021/12/26 03:11:44;;;;;;;5.27;4.70;;;4.50;92.40;;;;;;960346;146;27294;-84
2021/12/26 03:14:07;;;;;;;5.43;4.93;;;4.50;92.40;;;;;;966624;146;27277;-84
2021/12/26 03:16:33;;;;;;;4.73;4.30;;;4.50;92.40;;;;;;957446;146;27477;-83
2021/12/26 03:19:00;;;;;;;4.90;4.47;;;4.50;92.40;;;;;;957212;145;27321;-84
2021/12/26 03:21:30;;;;;;;5.23;4.73;;;4.50;92.40;;;;;;964881;146;27232;-83
2021/12/26 03:23:56;;;;;;;4.53;4.13;;;4.50;92.40;;;;;;957004;146;27315;-84
2021/12/26 03:26:23;;;;;;;5.30;4.80;;;4.50;92.40;;;;;;956040;146;27279;-83
2021/12/26 03:28:49;;;;;;;5.17;4.70;;;4.50;92.30;;;;;;958195;146;27314;-83
2021/12/26 03:31:16;;;;;;;6.03;4.90;;;4.50;92.30;;;;;;961390;146;27304;-84
2021/12/26 03:33:43;;;;;;;6.03;5.23;;;4.50;92.30;;;;;;959578;146;27264;-84
2021/12/26 03:36:09;;;;;;;5.30;4.80;;;4.50;92.30;;;;;;956503;146;27257;-84
2021/12/26 03:38:37;;;;;;;5.63;4.73;;;4.50;92.20;;;;;;975126;146;27262;-82
2021/12/26 03:41:02;;;;;;;5.10;4.60;;;4.50;92.20;;;;;;955317;146;27371;-82
2021/12/26 03:43:29;;;;;;;5.00;4.53;;;4.50;92.20;;;;;;956401;145;27416;-81
2021/12/26 03:45:55;;;;;;;4.67;4.27;;;4.50;92.10;;;;;;961478;146;27239;-81
2021/12/26 03:48:22;;;;;;;5.10;4.60;;;4.50;92.10;;;;;;968595;145;27244;-81
2021/12/26 03:50:49;;;;;;;5.20;4.67;;;4.50;92.10;;;;;;959470;146;27412;-81
2021/12/26 03:53:15;;;;;;;5.27;4.77;;;4.50;92.10;;;;;;961862;145;27271;-81
2021/12/26 03:55:42;;;;;;;5.70;4.80;;;4.50;92.20;;;;;;964119;145;27340;-81
2021/12/26 03:58:08;;;;;;;4.63;4.23;;;4.50;92.30;;;;;;950949;146;27314;-81
2021/12/26 04:00:35;;;;;;;5.47;4.97;;;4.50;92.20;;;;;;962242;145;27461;-81
2021/12/26 04:03:02;;;;;;;4.87;4.37;;;4.50;92.10;;;;;;960970;145;27327;-81
2021/12/26 04:05:28;;;;;;;4.80;4.37;;;4.40;92.00;;;;;;961690;145;27223;-81
2021/12/26 04:07:55;;;;;;;4.90;4.40;;;4.40;92.00;;;;;;963864;146;27388;-81
2021/12/26 04:10:21;;;;;;;4.90;4.40;;;4.40;92.00;;;;;;964358;145;27407;-82
2021/12/26 04:12:49;;;;;;;4.87;4.37;;;4.40;92.00;;;;;;968884;146;27311;-82
2021/12/26 04:15:14;;;;;;;4.93;4.53;;;4.40;92.10;;;;;;963603;146;27433;-82
2021/12/26 04:17:41;;;;;;;4.73;4.33;;;4.40;92.00;;;;;;956570;146;27331;-81
2021/12/26 04:20:08;;;;;;;4.17;3.83;;;4.40;92.00;;;;;;959307;146;27415;-81
2021/12/26 04:22:34;;;;;;;5.07;4.40;;;4.40;92.00;;;;;;967563;146;27344;-81
2021/12/26 04:25:01;;;;;;;4.77;4.37;;;4.40;92.00;;;;;;966529;146;27372;-81
2021/12/26 04:27:27;;;;;;;5.03;4.53;;;4.40;91.80;;;;;;963259;145;27398;-81
2021/12/26 04:29:54;;;;;;;4.70;4.30;;;4.40;91.80;;;;;;967567;146;27372;-81
2021/12/26 04:32:23;;;;;;;5.47;4.83;;;4.40;91.90;;;;;;965903;145;27375;-81
2021/12/26 04:34:50;;;;;;;5.37;4.57;;;4.30;91.90;;;;;;958753;146;27299;-81
2021/12/26 04:37:16;;;;;;;5.73;4.50;;;4.30;91.80;;;;;;960645;148;27369;-81
2021/12/26 04:39:43;;;;;;;5.40;4.90;;;4.30;91.80;;;;;;960106;146;27356;-81
2021/12/26 04:42:10;;;;;;;4.53;4.13;;;4.30;91.80;;;;;;963459;146;27300;-81
2021/12/26 04:44:37;;;;;;;4.53;4.13;;;4.30;91.90;;;;;;961403;145;27325;-82
2021/12/26 04:47:03;;;;;;;5.07;4.57;;;4.30;91.90;;;;;;965125;145;27311;-81
2021/12/26 04:49:29;;;;;;;5.87;4.90;;;4.30;92.00;;;;;;960641;146;27333;-81
2021/12/26 04:51:56;;;;;;;4.27;3.90;;;4.30;92.00;;;;;;960404;145;27300;-81
2021/12/26 04:54:22;;;;;;;4.87;4.47;;;4.30;92.10;;;;;;963469;145;27327;-82
2021/12/26 04:56:49;;;;;;;4.67;4.27;;;4.40;92.10;;;;;;965146;145;27355;-81
2021/12/26 04:59:16;;;;;;;4.47;4.07;;;4.40;91.80;;;;;;964032;146;27768;-81
2021/12/26 05:01:42;;;;;;;4.97;4.27;;;4.40;92.10;;;;;;963732;145;27350;-81
2021/12/26 05:04:09;;;;;;;5.60;5.00;;;4.40;92.20;;;;;;960634;146;27306;-81
2021/12/26 05:06:35;;;;;;;4.87;4.47;;;4.40;92.10;;;;;;968223;146;27271;-81
2021/12/26 05:09:02;;;;;;;4.80;4.40;;;4.40;92.10;;;;;;968754;145;27801;-81
2021/12/26 05:11:33;;;;;;;4.77;4.30;;;4.50;92.20;;;;;;960294;146;27754;-81
2021/12/26 05:13:58;;;;;;;5.33;4.83;;;4.50;92.10;;;;;;962779;146;27320;-81
2021/12/26 05:16:25;;;;;;;4.70;4.30;;;4.50;92.10;;;;;;961311;146;27292;-81
2021/12/26 05:18:51;;;;;;;4.47;4.07;;;4.50;92.10;;;;;;958961;146;27420;-81
2021/12/26 05:21:18;;;;;;;4.67;4.27;;;4.50;92.20;;;;;;959199;146;27346;-81
2021/12/26 05:23:45;;;;;;;5.20;4.70;;;4.60;92.20;;;;;;976740;146;27221;-81
2021/12/26 05:26:14;;;;;;;4.97;4.47;;;4.60;92.10;;;;;;962092;146;27303;-82
2021/12/26 05:28:41;;;;;;;6.13;4.50;;;4.60;92.20;;;;;;962296;146;27260;-81
2021/12/26 05:31:07;;;;;;;5.07;4.63;;;4.60;92.10;;;;;;961839;146;27300;-81
2021/12/26 05:33:34;;;;;;;5.20;4.70;;;4.60;92.10;;;;;;963051;146;27303;-81
2021/12/26 05:36:00;;;;;;;5.63;5.03;;;4.70;92.10;;;;;;957208;146;27283;-81
2021/12/26 05:38:28;;;;;;;5.97;4.83;;;4.70;92.10;;;;;;961911;146;27220;-81
2021/12/26 05:40:54;;;;;;;4.73;4.27;;;4.70;92.10;;;;;;965309;146;27371;-81
2021/12/26 05:43:20;;;;;;;4.83;4.43;;;4.70;92.10;;;;;;957385;146;27444;-82
2021/12/26 05:45:47;;;;;;;5.23;4.73;;;4.70;92.10;;;;;;965293;146;27373;-82
2021/12/26 05:48:13;;;;;;;5.33;4.83;;;4.70;92.00;;;;;;959739;146;27288;-81
2021/12/26 05:50:40;;;;;;;4.97;4.50;;;4.80;92.00;;;;;;970017;145;27315;-81
2021/12/26 05:53:06;;;;;;;5.70;5.17;;;4.80;92.00;;;;;;962725;146;27295;-81
2021/12/26 05:55:33;;;;;;;4.53;4.13;;;4.80;92.10;;;;;;958283;146;27313;-82
2021/12/26 05:58:00;;;;;;;5.23;4.60;;;4.80;92.00;;;;;;957937;146;27282;-82
2021/12/26 06:00:29;;;;;;;5.07;4.60;;;4.80;92.00;;;;;;954834;146;27271;-82
2021/12/26 06:02:56;;;;;;;4.90;4.50;;;4.80;92.00;;;;;;951919;147;27352;-82
2021/12/26 06:05:22;;;;;;;5.23;4.60;;;4.90;91.80;;;;;;952943;149;27846;-82
2021/12/26 06:07:49;;;;;;;5.07;4.40;;;4.90;91.80;;;;;;955705;149;27368;-82
2021/12/26 06:10:16;;;;;;;4.83;4.40;;;4.90;91.80;;;;;;954806;147;27243;-82
2021/12/26 06:12:42;;;;;;;4.53;4.13;;;4.90;91.80;;;;;;956043;147;27384;-82
2021/12/26 06:15:09;;;;;;;4.47;3.90;;;4.90;91.70;;;;;;954443;147;27321;-81
2021/12/26 06:17:35;;;;;;;4.70;4.30;;;4.90;91.70;;;;;;955335;147;27298;-82
2021/12/26 06:20:02;;;;;;;4.93;4.50;;;4.90;91.70;;;;;;955809;147;27403;-81
2021/12/26 06:22:28;;;;;;;5.63;4.57;;;4.90;91.60;;;;;;955409;147;28111;-82
2021/12/26 06:24:55;;;;;;;4.43;4.03;;;4.80;91.50;;;;;;957588;147;27391;-81
2021/12/26 06:27:24;;;;;;;5.40;4.90;;;4.80;91.50;;;;;;954321;147;27328;-81
2021/12/26 06:29:51;;;;;;;5.13;4.63;;;4.80;91.50;;;;;;957853;147;27819;-81
2021/12/26 06:32:17;;;;;;;4.83;4.33;;;4.80;91.50;;;;;;956988;147;27264;-81
2021/12/26 06:34:44;;;;;;;5.60;5.03;;;4.80;91.50;;;;;;956926;147;27337;-81
2021/12/26 06:37:11;;;;;;;4.93;4.43;;;4.80;91.50;;;;;;951613;147;27255;-81
2021/12/26 06:39:37;;;;;;;5.60;4.90;;;4.70;91.50;;;;;;955119;147;27381;-81
2021/12/26 06:42:04;;;;;;;5.37;4.83;;;4.70;91.50;;;;;;960119;147;27383;-81
2021/12/26 06:44:30;;;;;;;5.23;4.50;;;4.70;91.60;;;;;;957622;147;27253;-81
2021/12/26 06:46:57;;;;;;;6.07;4.87;;;4.70;91.60;;;;;;957503;145;27335;-81
2021/12/26 06:49:24;;;;;;;5.77;4.70;;;4.80;91.60;;;;;;952233;147;27402;-81
2021/12/26 06:51:53;;;;;;;5.03;4.43;;;4.70;91.50;;;;;;959979;147;27288;-81
2021/12/26 06:54:19;;;;;;;5.27;4.77;;;4.70;91.60;;;;;;952168;147;27726;-81
2021/12/26 06:56:46;;;;;;;5.53;5.00;;;4.70;91.60;;;;;;947643;147;27624;-81
2021/12/26 06:59:13;;;;;;;5.77;5.17;;;4.70;91.60;;;;;;959977;147;27315;-82
2021/12/26 07:01:39;;;;;;;7.00;4.93;;;4.70;91.60;;;;;;948992;147;27247;-81
2021/12/26 07:04:06;;;;;;;6.10;5.27;;;4.70;91.50;;;;;;960972;146;27684;-82
2021/12/26 07:06:32;;;;;;;5.77;5.27;;;4.70;91.50;;;;;;963651;148;27339;-81
2021/12/26 07:08:59;;;;;;;4.60;4.17;;;4.70;91.50;;;;;;960406;146;27303;-82
2021/12/26 07:11:25;;;;;;;5.83;4.77;;;4.70;91.60;;;;;;971648;146;27261;-82
2021/12/26 07:13:52;;;;;;;5.70;4.83;;;4.70;91.60;;;;;;959738;146;27308;-81
2021/12/26 07:16:19;;;;;;;5.20;4.47;;;4.70;91.60;;;;;;962708;146;27315;-82
2021/12/26 07:18:45;;;;;;;5.03;4.53;;;4.70;91.60;;;;;;966353;146;27435;-82
2021/12/26 07:21:12;;;;;;;4.97;4.50;;;4.70;91.60;;;;;;959799;148;27283;-81
2021/12/26 07:23:38;;;;;;;6.17;5.27;;;4.70;91.50;;;;;;960806;146;27320;-82
2021/12/26 07:26:05;;;;;;;6.10;4.77;;;4.70;91.60;;;;;;961788;146;27338;-81
2021/12/26 07:28:32;;;;;;;5.27;4.77;;;4.70;91.60;;;;;;960198;146;27395;-81
2021/12/26 07:30:58;;;;;;;6.70;5.80;;;4.70;91.70;;;;;;958035;148;27424;-81
2021/12/26 07:33:25;;;;;;;5.33;4.53;;;4.70;91.60;;;;;;957290;148;27838;-81
2021/12/26 07:35:51;;;;;;;6.10;5.30;;;4.70;91.60;;;;;;964124;148;27279;-81
2021/12/26 07:38:21;;;;;;;6.50;5.53;;;4.70;91.60;;;;;;961570;146;27387;-81
2021/12/26 07:40:47;;;;;;;6.43;5.17;;;4.70;91.60;;;;;;957196;149;27399;-81
2021/12/26 07:43:14;;;;;;;7.83;5.70;;;4.60;91.60;;;;;;958763;146;27263;-81
2021/12/26 07:45:40;;;;;;;5.93;5.23;;;4.60;91.60;;;;;;960092;147;27268;-81
2021/12/26 07:48:07;;;;;;;6.17;5.30;;;4.70;91.60;;;;;;960981;146;27419;-82
2021/12/26 07:50:34;;;;;;;5.83;5.23;;;4.60;91.70;;;;;;963994;148;27303;-81
2021/12/26 07:53:06;;;;;;;7.37;5.63;;;4.70;91.90;;;;;;965394;147;27286;-81
2021/12/26 07:55:27;;;;;;;6.13;5.53;;;4.70;91.90;;;;;;962601;147;27391;-81
2021/12/26 07:57:53;;;;;;;7.27;5.30;;;4.70;91.90;;;;;;962432;147;27292;-81
2021/12/26 08:00:20;;;;;;;7.80;6.10;;;4.70;92.00;;;;;;961044;147;27296;-81
2021/12/26 08:02:49;;;;;;;6.33;5.30;;;4.70;92.10;;;;;;958356;146;27467;-81
2021/12/26 08:05:19;;;;;;;6.37;5.50;;;4.80;92.20;;;;;;957026;146;27332;-81
2021/12/26 08:07:45;;;;;;;7.80;6.20;;;4.80;92.20;;;;;;959204;146;27328;-82
2021/12/26 08:10:12;;;;;;;6.83;5.83;;;4.90;92.20;;;;;;964949;146;28160;-82
2021/12/26 08:12:38;;;;;;;6.30;5.63;;;4.90;92.10;;;;;;964190;146;27264;-82
2021/12/26 08:15:05;;;;;;;6.47;5.53;;;5.00;92.10;;;;;;959717;146;27283;-82
2021/12/26 08:17:32;;;;;;;6.87;5.30;;;5.00;92.00;;;;;;960723;143;27296;-81
2021/12/26 08:19:58;;;;;;;5.63;5.07;;;5.00;92.00;;;;;;962576;147;27315;-81
2021/12/26 08:22:25;;;;;;;6.47;5.37;;;5.10;92.00;;;;;;964891;147;27267;-82
2021/12/26 08:24:51;;;;;;;7.33;5.80;;;5.10;92.00;;;;;;959080;147;27277;-82
2021/12/26 08:27:18;;;;;;;7.77;6.03;;;5.10;91.80;;;;;;958631;147;27376;-82
2021/12/26 08:29:44;;;;;;;6.67;5.97;;;5.10;91.70;;;;;;961950;147;27376;-82
2021/12/26 08:32:14;;;;;;;6.97;5.67;;;5.20;91.80;;;;;;962114;146;27306;-82
2021/12/26 08:34:41;;;;;;;6.77;5.80;;;5.20;91.80;;;;;;960057;146;27258;-82
2021/12/26 08:37:07;;;;;;;6.67;6.00;;;5.20;91.70;;;;;;959848;146;27422;-82
2021/12/26 08:39:34;;;;;;;6.80;5.30;;;5.20;91.60;;;;;;962026;146;27350;-82
2021/12/26 08:42:00;;;;;;;6.77;6.07;;;5.30;91.60;;;;;;959974;146;27323;-82
2021/12/26 08:44:27;;;;;;;7.70;5.47;;;5.30;91.60;;;;;;960182;146;27658;-82
2021/12/26 08:46:53;;;;;;;6.43;5.20;;;5.30;91.70;;;;;;926747;152;27462;-82
2021/12/26 08:49:20;;;;;;;7.53;5.57;;;5.30;91.60;;;;;;959666;146;27242;-82
2021/12/26 08:51:46;;;;;;;5.80;5.20;;;5.30;91.60;;;;;;964367;146;27315;-82
2021/12/26 08:54:13;;;;;;;5.80;5.20;;;5.30;91.50;;;;;;960402;146;27743;-82
2021/12/26 08:56:40;;;;;;;8.63;6.60;;;5.30;91.50;;;;;;962407;146;27263;-82
2021/12/26 08:59:09;;;;;;;6.57;5.87;;;5.40;91.80;;;;;;957083;146;27284;-82
2021/12/26 09:01:35;;;;;;;7.27;6.30;;;5.40;91.40;;;;;;955543;146;27681;-82
2021/12/26 09:04:02;;;;;;;7.47;6.63;;;5.40;91.30;;;;;;957326;146;27363;-82
2021/12/26 09:06:29;;;;;;;8.63;7.20;;;5.40;91.30;;;;;;957574;146;27407;-82
2021/12/26 09:08:55;;;;;;;7.37;6.57;;;5.40;91.40;;;;;;957103;146;27446;-82
2021/12/26 09:11:22;;;;;;;7.23;6.17;;;5.40;91.00;;;;;;957766;147;27426;-82
2021/12/26 09:13:48;;;;;;;7.20;6.47;;;5.40;91.30;;;;;;959061;146;27279;-82
2021/12/26 09:16:15;;;;;;;6.27;5.67;;;5.40;91.70;;;;;;960406;146;27343;-81
2021/12/26 09:18:44;;;;;;;6.33;5.43;;;5.50;91.40;;;;;;953938;146;27436;-82
2021/12/26 09:21:11;;;;;;;7.50;6.00;;;5.50;91.50;;;;;;957990;149;27300;-81
2021/12/26 09:23:38;;;;;;;8.27;6.07;;;5.50;91.50;;;;;;958776;146;27327;-81
2021/12/26 09:26:04;;;;;;;7.17;5.73;;;5.50;91.60;;;;;;965301;146;27325;-81
2021/12/26 09:28:35;;;;;;;7.00;5.80;;;5.60;91.70;;;;;;960361;146;27731;-81
2021/12/26 09:30:57;;;;;;;7.30;6.17;;;5.60;91.70;;;;;;957646;145;27402;-81
2021/12/26 09:33:24;;;;;;;6.40;5.27;;;5.70;91.80;;;;;;961535;146;27305;-81
2021/12/26 09:35:51;;;;;;;6.67;6.00;;;5.70;91.90;;;;;;958134;146;27287;-82
2021/12/26 09:38:17;;;;;;;6.57;5.67;;;5.80;91.90;;;;;;961797;146;27295;-81
2021/12/26 09:40:44;;;;;;;7.07;5.57;;;5.90;91.90;;;;;;960457;146;27392;-81
2021/12/26 09:43:10;;;;;;;6.53;5.83;;;5.90;91.90;;;;;;961260;146;27340;-81
2021/12/26 09:45:37;;;;;;;6.77;5.77;;;6.00;91.80;;;;;;962788;145;27404;-81
2021/12/26 09:48:03;;;;;;;7.80;6.67;;;6.10;91.80;;;;;;959112;146;28129;-81
2021/12/26 09:50:30;;;;;;;7.60;6.60;;;6.10;91.80;;;;;;958538;146;27322;-81
2021/12/26 09:52:57;;;;;;;9.63;6.23;;;6.20;91.80;;;;;;955963;146;27277;-81
2021/12/26 09:55:23;;;;;;;8.30;6.97;;;6.30;91.70;;;;;;959252;145;27437;-81
2021/12/26 09:57:50;;;;;;;7.13;6.30;;;6.30;91.60;;;;;;948668;148;27327;-81
2021/12/26 10:00:25;;;;;;;8.07;7.13;;;6.40;91.50;;;;;;950682;147;27266;-82
2021/12/26 10:03:16;;;;;;;7.97;6.43;;;6.40;91.50;;;;;;952276;150;27369;-81
2021/12/26 10:06:09;;;;;;;7.33;6.07;;;6.50;91.30;;;;;;940541;149;27448;-82
2021/12/26 10:08:33;;;;;;;7.50;6.30;;;6.50;91.10;;;;;;957659;146;27405;-81
2021/12/26 10:11:12;;;;;;;6.77;5.70;;;6.50;91.10;;;;;;959499;146;27306;-82
2021/12/26 10:13:56;;;;;;;7.17;6.17;;;6.50;90.90;;;;;;955527;146;27280;-81
2021/12/26 10:16:23;;;;;;;7.43;6.60;;;6.50;91.00;;;;;;953239;146;27830;-82
2021/12/26 10:18:49;;;;;;;7.87;6.47;;;6.60;91.10;;;;;;958345;146;27346;-82
2021/12/26 10:21:25;;;;;;;7.83;6.30;;;6.60;91.10;;;;;;959505;147;27355;-81
2021/12/26 10:23:51;;;;;;;7.13;5.30;;;6.60;91.20;;;;;;951083;148;27251;-81
2021/12/26 10:26:20;;;;;;;6.47;5.73;;;6.60;91.20;;;;;;954356;149;27358;-82
2021/12/26 10:29:18;;;;;;;7.13;6.07;;;6.60;91.30;;;;;;955722;146;27322;-82
2021/12/26 10:31:47;;;;;;;6.90;5.63;;;6.70;91.20;;;;;;956536;148;28051;-81
2021/12/26 10:34:14;;;;;;;6.20;5.40;;;6.70;91.30;;;;;;965996;147;27295;-82
2021/12/26 10:36:43;;;;;;;8.33;6.33;;;6.70;91.40;;;;;;956594;147;27315;-82
2021/12/26 10:39:12;;;;;;;6.90;5.80;;;6.70;91.40;;;;;;963644;147;27460;-81
2021/12/26 10:41:36;;;;;;;8.70;6.47;;;6.80;91.40;;;;;;961396;149;27325;-82
2021/12/26 10:44:03;;;;;;;7.80;6.77;;;6.80;91.20;;;;;;960226;146;27319;-82
2021/12/26 10:46:31;;;;;;;7.30;6.30;;;6.80;91.10;;;;;;963774;146;27330;-82
2021/12/26 10:48:56;;;;;;;7.70;6.53;;;6.80;91.00;;;;;;958770;146;27248;-82
2021/12/26 10:51:35;;;;;;;7.57;6.67;;;6.80;91.00;;;;;;959078;146;27390;-83
2021/12/26 10:54:14;;;;;;;6.57;5.77;;;6.90;91.10;;;;;;956631;147;27304;-82
2021/12/26 10:56:40;;;;;;;6.90;5.97;;;6.90;91.30;;;;;;955595;146;27432;-82
2021/12/26 10:59:22;;;;;;;7.13;6.00;;;6.90;91.30;;;;;;956332;146;27312;-81
2021/12/26 11:01:54;;;;;;;7.33;5.70;;;6.90;91.20;;;;;;962406;146;27347;-81
2021/12/26 11:04:18;;;;;;;7.20;5.70;;;7.00;91.30;;;;;;960840;146;27796;-81
2021/12/26 11:07:03;;;;;;;7.33;6.37;;;7.00;91.30;;;;;;963708;146;27316;-81
2021/12/26 11:09:29;;;;;;;7.13;5.63;;;7.00;91.30;;;;;;962062;148;27406;-82
2021/12/26 11:12:01;;;;;;;6.17;5.27;;;7.10;91.30;;;;;;964633;146;27305;-82
2021/12/26 11:14:28;;;;;;;5.97;5.03;;;7.10;91.30;;;;;;957618;146;27333;-81
2021/12/26 11:16:55;;;;;;;7.57;6.17;;;7.20;91.20;;;;;;960326;148;27439;-81
2021/12/26 11:19:40;;;;;;;7.23;6.30;;;7.20;91.20;;;;;;958464;146;27396;-81
2021/12/26 11:22:06;;;;;;;7.27;6.23;;;7.20;91.10;;;;;;955665;147;27331;-81
2021/12/26 11:24:33;;;;;;;7.47;6.50;;;7.30;90.90;;;;;;958241;146;27328;-81
2021/12/26 11:27:02;;;;;;;6.50;5.77;;;7.30;90.90;;;;;;959872;149;27633;-81
2021/12/26 11:29:26;;;;;;;7.73;6.53;;;7.30;90.70;;;;;;961779;146;27627;-81
2021/12/26 11:31:54;;;;;;;8.07;6.33;;;7.40;90.50;;;;;;957156;148;27341;-81
2021/12/26 11:34:19;;;;;;;6.43;5.77;;;7.40;90.50;;;;;;961141;146;27966;-82
2021/12/26 11:36:46;;;;;;;6.80;5.83;;;7.40;90.60;;;;;;960847;146;27263;-82
2021/12/26 11:39:12;;;;;;;7.50;6.67;;;7.40;90.60;;;;;;957198;147;27833;-82
2021/12/26 11:41:52;;;;;;;8.40;6.80;;;7.50;90.60;;;;;;959654;147;27864;-82
2021/12/26 11:44:36;;;;;;;8.03;6.60;;;7.50;90.60;;;;;;959207;146;27310;-82
2021/12/26 11:47:27;;;;;;;7.23;6.00;;;7.50;90.60;;;;;;961419;146;27388;-82
2021/12/26 11:50:08;;;;;;;6.23;5.53;;;7.60;90.60;;;;;;963152;145;27401;-82
2021/12/26 11:52:50;;;;;;;6.40;5.73;;;7.60;90.50;;;;;;957348;149;27314;-82
2021/12/26 11:55:38;;;;;;;6.37;5.67;;;7.60;90.50;;;;;;953687;146;27332;-82
2021/12/26 11:58:07;;;;;;;7.67;6.87;;;7.70;90.50;;;;;;957448;147;27307;-82
2021/12/26 12:00:35;;;;;;;5.93;5.37;;;7.70;90.40;;;;;;962867;148;27419;-82
2021/12/26 12:03:00;;;;;;;6.93;6.23;;;7.70;90.30;;;;;;960921;148;27314;-82
2021/12/26 12:05:39;;;;;;;7.63;5.87;;;7.70;90.10;;;;;;953215;146;27469;-82
2021/12/26 12:08:08;;;;;;;7.67;6.13;;;7.70;89.70;;;;;;949288;147;27336;-81
2021/12/26 12:10:40;;;;;;;8.00;6.70;;;7.70;89.70;;;;;;951452;147;27307;-81
2021/12/26 12:13:04;;;;;;;6.47;5.77;;;7.70;89.80;;;;;;948034;147;27282;-81
2021/12/26 12:15:46;;;;;;;7.50;6.43;;;7.70;89.70;;;;;;955923;148;27289;-81
2021/12/26 12:18:30;;;;;;;9.10;6.73;;;7.60;89.50;;;;;;954008;147;27282;-81
2021/12/26 12:21:15;;;;;;;8.20;6.47;;;7.60;89.10;;;;;;950876;149;27897;-82
2021/12/26 12:24:00;;;;;;;8.07;5.77;;;7.50;88.90;;;;;;948565;147;27377;-82
2021/12/26 12:26:54;;;;;;;6.87;5.83;;;7.40;89.00;;;;;;952788;147;27485;-82
2021/12/26 12:29:30;;;;;;;7.07;5.80;;;7.40;89.30;;;;;;958374;148;27363;-81
2021/12/26 12:32:12;;;;;;;6.17;5.27;;;7.30;89.90;;;;;;955361;147;27403;-82
2021/12/26 12:34:47;;;;;;;7.07;6.00;;;7.30;90.00;;;;;;953135;147;27350;-82
2021/12/26 12:37:32;;;;;;;8.10;6.80;;;7.30;90.20;;;;;;951966;147;27439;-82
2021/12/26 12:40:17;;;;;;;7.37;6.40;;;7.30;90.30;;;;;;955095;147;27427;-82
2021/12/26 12:42:44;;;;;;;10.20;6.63;;;7.20;90.30;;;;;;949049;147;27375;-82
2021/12/26 12:45:10;;;;;;;10.27;6.70;;;7.30;90.20;;;;;;951787;149;27345;-82
2021/12/26 12:47:37;;;;;;;8.23;6.47;;;7.20;90.30;;;;;;955178;147;27352;-82
2021/12/26 12:50:03;;;;;;;8.83;7.17;;;7.20;90.30;;;;;;955209;147;27393;-82
2021/12/26 12:52:45;;;;;;;8.63;6.33;;;7.20;90.30;;;;;;951114;149;27270;-82
2021/12/26 12:55:14;;;;;;;7.40;5.83;;;7.20;90.30;;;;;;955054;147;27360;-82
2021/12/26 12:57:49;;;;;;;7.50;6.63;;;7.30;90.30;;;;;;949044;149;27388;-82
2021/12/26 13:00:25;;;;;;;7.37;6.37;;;7.30;90.30;;;;;;954047;149;27309;-81
2021/12/26 13:02:51;;;;;;;6.50;5.70;;;7.30;90.30;;;;;;955653;147;27315;-82